createdAt,value
2023-04-03T00:00:00.722Z,26.57
2023-04-03T00:01:00.788Z,26.57
2023-04-03T00:02:00.893Z,26.55
2023-04-03T00:03:00.941Z,26.54
2023-04-03T00:04:00.990Z,26.54
2023-04-03T00:05:01.074Z,26.55
2023-04-03T00:06:01.100Z,26.53
2023-04-03T00:07:01.181Z,26.53
2023-04-03T00:08:01.191Z,26.55
2023-04-03T00:09:01.253Z,26.54
2023-04-03T00:10:01.303Z,26.54
2023-04-03T00:11:01.339Z,26.54
2023-04-03T00:12:01.457Z,26.53
2023-04-03T00:13:01.482Z,26.51
2023-04-03T00:14:01.541Z,26.53
2023-04-03T00:15:01.608Z,26.53
2023-04-03T00:16:01.716Z,26.50
2023-04-03T00:17:01.777Z,26.50
2023-04-03T00:18:01.870Z,26.51
2023-04-03T00:19:01.882Z,26.53
2023-04-03T00:20:01.935Z,26.51
2023-04-03T00:21:02.028Z,26.51
2023-04-03T00:22:02.053Z,26.50
2023-04-03T00:23:02.065Z,26.48
2023-04-03T00:24:02.142Z,26.48
2023-04-03T00:25:02.212Z,26.48
2023-04-03T00:26:02.237Z,26.48
2023-04-03T00:27:02.296Z,26.51
2023-04-03T00:28:02.372Z,26.48
2023-04-03T00:29:02.443Z,26.48
2023-04-03T00:30:02.477Z,26.47
2023-04-03T00:31:02.546Z,26.46
2023-04-03T00:32:02.589Z,26.47
2023-04-03T00:33:02.718Z,26.46
2023-04-03T00:34:02.700Z,26.46
2023-04-03T00:35:02.759Z,26.50
2023-04-03T00:36:02.924Z,26.48
2023-04-03T00:37:02.957Z,26.46
2023-04-03T00:38:02.945Z,26.47
2023-04-03T00:39:03.012Z,26.48
2023-04-03T00:40:03.054Z,26.44
2023-04-03T00:41:03.117Z,26.43
2023-04-03T00:42:03.182Z,26.46
2023-04-03T00:43:03.226Z,26.46
2023-04-03T00:44:03.284Z,26.44
2023-04-03T00:45:03.300Z,26.44
2023-04-03T00:46:03.417Z,26.47
2023-04-03T00:47:03.406Z,26.44
2023-04-03T00:48:03.528Z,26.46
2023-04-03T00:49:03.482Z,26.46
2023-04-03T00:50:03.531Z,26.44
2023-04-03T00:51:03.597Z,26.46
2023-04-03T00:52:03.617Z,26.43
2023-04-03T00:53:03.643Z,26.43
2023-04-03T00:54:03.713Z,26.44
2023-04-03T00:55:03.710Z,26.44
2023-04-03T00:56:03.764Z,26.42
2023-04-03T00:57:03.797Z,26.43
2023-04-03T00:58:03.853Z,26.40
2023-04-03T00:59:03.861Z,26.43
2023-04-03T01:00:03.917Z,26.42
2023-04-03T01:01:03.907Z,26.42
2023-04-03T01:02:03.993Z,26.40
2023-04-03T01:03:04.034Z,26.40
2023-04-03T01:04:04.163Z,26.42
2023-04-03T01:05:04.044Z,26.40
2023-04-03T01:06:04.052Z,26.40
2023-04-03T01:07:04.069Z,26.40
2023-04-03T01:08:04.052Z,26.40
2023-04-03T01:09:04.060Z,26.40
2023-04-03T01:10:04.122Z,26.39
2023-04-03T01:11:04.181Z,26.42
2023-04-03T01:12:04.185Z,26.40
2023-04-03T01:13:04.244Z,26.39
2023-04-03T01:14:04.306Z,26.37
2023-04-03T01:15:04.319Z,26.37
2023-04-03T01:16:04.412Z,26.39
2023-04-03T01:17:04.386Z,26.39
2023-04-03T01:18:04.475Z,26.39
2023-04-03T01:19:04.471Z,26.37
2023-04-03T01:20:04.550Z,26.36
2023-04-03T01:21:04.619Z,26.36
2023-04-03T01:22:04.672Z,26.39
2023-04-03T01:23:04.777Z,26.37
2023-04-03T01:24:04.787Z,26.37
2023-04-03T01:25:04.897Z,26.36
2023-04-03T01:26:04.793Z,26.36
2023-04-03T01:27:04.806Z,26.37
2023-04-03T01:28:04.868Z,26.36
2023-04-03T01:29:04.871Z,26.36
2023-04-03T01:30:04.877Z,26.37
2023-04-03T01:31:04.918Z,26.36
2023-04-03T01:32:04.917Z,26.34
2023-04-03T01:33:04.954Z,26.36
2023-04-03T01:34:04.896Z,26.34
2023-04-03T01:35:04.910Z,26.34
2023-04-03T01:36:05.050Z,26.33
2023-04-03T01:37:05.043Z,26.33
2023-04-03T01:38:04.991Z,26.33
2023-04-03T01:39:05.028Z,26.33
2023-04-03T01:40:05.061Z,26.34
2023-04-03T01:41:05.125Z,26.33
2023-04-03T01:42:05.155Z,26.33
2023-04-03T01:43:05.224Z,26.32
2023-04-03T01:44:05.255Z,26.32
2023-04-03T01:45:05.246Z,26.32
2023-04-03T01:46:05.368Z,26.32
2023-04-03T01:47:05.290Z,26.30
2023-04-03T01:48:05.338Z,26.30
2023-04-03T01:49:05.318Z,26.30
2023-04-03T01:50:05.333Z,26.32
2023-04-03T01:51:05.312Z,26.30
2023-04-03T01:52:05.327Z,26.29
2023-04-03T01:53:05.323Z,26.32
2023-04-03T01:54:05.353Z,26.30
2023-04-03T01:55:05.323Z,26.30
2023-04-03T01:56:05.308Z,26.32
2023-04-03T01:57:05.357Z,26.29
2023-04-03T01:58:05.325Z,26.29
2023-04-03T01:59:05.333Z,26.29
2023-04-03T02:00:05.399Z,26.30
2023-04-03T02:01:05.480Z,26.29
2023-04-03T02:02:05.416Z,26.30
2023-04-03T02:03:05.439Z,26.29
2023-04-03T02:04:05.448Z,26.27
2023-04-03T02:05:05.428Z,26.29
2023-04-03T02:06:05.434Z,26.29
2023-04-03T02:07:05.446Z,26.29
2023-04-03T02:08:05.414Z,26.27
2023-04-03T02:09:05.448Z,26.29
2023-04-03T02:10:05.493Z,26.24
2023-04-03T02:11:05.475Z,26.27
2023-04-03T02:12:05.473Z,26.26
2023-04-03T02:13:05.459Z,26.27
2023-04-03T02:14:05.511Z,26.26
2023-04-03T02:15:05.443Z,26.26
2023-04-03T02:16:05.462Z,26.23
2023-04-03T02:17:05.460Z,26.24
2023-04-03T02:18:07.758Z,26.24
2023-04-03T02:19:05.459Z,26.23
2023-04-03T02:20:05.466Z,26.24
2023-04-03T02:21:05.477Z,26.23
2023-04-03T02:22:05.492Z,26.22
2023-04-03T02:23:05.446Z,26.23
2023-04-03T02:24:05.503Z,26.23
2023-04-03T02:25:05.459Z,26.20
2023-04-03T02:26:05.472Z,26.22
2023-04-03T02:27:05.464Z,26.24
2023-04-03T02:28:05.533Z,26.26
2023-04-03T02:29:05.616Z,26.22
2023-04-03T02:30:05.575Z,26.24
2023-04-03T02:31:05.710Z,26.22
2023-04-03T02:32:05.616Z,26.23
2023-04-03T02:33:05.672Z,26.20
2023-04-03T02:34:05.569Z,26.22
2023-04-03T02:35:05.632Z,26.22
2023-04-03T02:36:05.609Z,26.23
2023-04-03T02:37:05.597Z,26.23
2023-04-03T02:38:05.600Z,26.20
2023-04-03T02:39:05.610Z,26.19
2023-04-03T02:40:05.621Z,26.20
2023-04-03T02:41:05.616Z,26.20
2023-04-03T02:42:05.574Z,26.20
2023-04-03T02:43:05.591Z,26.20
2023-04-03T02:44:05.599Z,26.17
2023-04-03T02:45:05.592Z,26.17
2023-04-03T02:46:05.698Z,26.19
2023-04-03T02:47:05.680Z,26.19
2023-04-03T02:48:05.750Z,26.19
2023-04-03T02:49:05.637Z,26.20
2023-04-03T02:50:05.624Z,26.17
2023-04-03T02:51:05.641Z,26.17
2023-04-03T02:52:05.654Z,26.19
2023-04-03T02:53:05.699Z,26.17
2023-04-03T02:54:05.662Z,26.16
2023-04-03T02:55:05.665Z,26.17
2023-04-03T02:56:05.678Z,26.16
2023-04-03T02:57:05.698Z,26.19
2023-04-03T02:58:06.570Z,26.16
2023-04-03T02:59:05.695Z,26.15
2023-04-03T03:00:05.691Z,26.15
2023-04-03T03:01:05.704Z,26.16
2023-04-03T03:02:05.774Z,26.15
2023-04-03T03:03:05.850Z,26.16
2023-04-03T03:04:05.732Z,26.17
2023-04-03T03:05:05.799Z,26.16
2023-04-03T03:06:05.719Z,26.15
2023-04-03T03:07:05.751Z,26.16
2023-04-03T03:08:05.804Z,26.15
2023-04-03T03:09:05.764Z,26.15
2023-04-03T03:10:05.768Z,26.15
2023-04-03T03:11:05.792Z,26.15
2023-04-03T03:12:05.778Z,26.12
2023-04-03T03:13:05.806Z,26.13
2023-04-03T03:14:05.794Z,26.13
2023-04-03T03:15:05.801Z,26.13
2023-04-03T03:16:05.874Z,26.13
2023-04-03T03:17:05.815Z,26.12
2023-04-03T03:18:05.923Z,26.13
2023-04-03T03:19:05.823Z,26.12
2023-04-03T03:20:05.843Z,26.13
2023-04-03T03:21:05.862Z,26.13
2023-04-03T03:22:05.909Z,26.15
2023-04-03T03:23:06.463Z,26.12
2023-04-03T03:24:05.868Z,26.12
2023-04-03T03:25:05.867Z,26.13
2023-04-03T03:26:05.866Z,26.12
2023-04-03T03:27:05.880Z,26.10
2023-04-03T03:28:05.902Z,26.12
2023-04-03T03:29:05.907Z,26.12
2023-04-03T03:30:05.948Z,26.12
2023-04-03T03:31:05.968Z,26.09
2023-04-03T03:32:05.972Z,26.09
2023-04-03T03:33:06.018Z,26.07
2023-04-03T03:34:05.994Z,26.09
2023-04-03T03:35:05.982Z,26.07
2023-04-03T03:36:06.102Z,26.09
2023-04-03T03:37:05.996Z,26.09
2023-04-03T03:38:06.063Z,26.09
2023-04-03T03:39:06.042Z,26.07
2023-04-03T03:40:06.072Z,26.07
2023-04-03T03:41:06.076Z,26.06
2023-04-03T03:42:06.087Z,26.07
2023-04-03T03:43:06.136Z,26.09
2023-04-03T03:44:06.140Z,26.07
2023-04-03T03:45:06.110Z,26.07
2023-04-03T03:46:06.220Z,26.10
2023-04-03T03:47:06.179Z,26.10
2023-04-03T03:48:06.219Z,26.07
2023-04-03T03:49:06.245Z,26.07
2023-04-03T03:50:06.192Z,26.07
2023-04-03T03:51:06.177Z,26.07
2023-04-03T03:52:06.200Z,26.09
2023-04-03T03:53:06.222Z,26.06
2023-04-03T03:54:06.238Z,26.06
2023-04-03T03:55:06.238Z,26.06
2023-04-03T03:56:06.315Z,26.04
2023-04-03T03:57:06.286Z,26.06
2023-04-03T03:58:06.234Z,26.04
2023-04-03T03:59:06.311Z,26.03
2023-04-03T04:00:06.288Z,26.04
2023-04-03T04:01:06.258Z,26.06
2023-04-03T04:02:06.302Z,26.04
2023-04-03T04:03:06.352Z,26.02
2023-04-03T04:04:06.358Z,26.04
2023-04-03T04:05:06.328Z,26.04
2023-04-03T04:06:06.320Z,26.02
2023-04-03T04:07:06.332Z,26.04
2023-04-03T04:08:06.330Z,26.03
2023-04-03T04:09:06.268Z,25.99
2023-04-03T04:10:06.329Z,25.99
2023-04-03T04:11:06.327Z,25.95
2023-04-03T04:12:06.362Z,25.96
2023-04-03T04:13:06.314Z,25.97
2023-04-03T04:14:06.346Z,25.96
2023-04-03T04:15:06.372Z,25.95
2023-04-03T04:16:06.371Z,25.91
2023-04-03T04:17:06.381Z,25.92
2023-04-03T04:18:06.400Z,25.92
2023-04-03T04:19:08.442Z,25.89
2023-04-03T04:20:06.560Z,25.88
2023-04-03T04:21:06.554Z,25.91
2023-04-03T04:22:06.570Z,25.88
2023-04-03T04:23:06.549Z,25.89
2023-04-03T04:24:06.583Z,25.89
2023-04-03T04:25:06.572Z,25.88
2023-04-03T04:26:06.598Z,25.86
2023-04-03T04:27:06.584Z,25.86
2023-04-03T04:28:06.569Z,25.86
2023-04-03T04:29:06.623Z,25.86
2023-04-03T04:30:06.617Z,25.85
2023-04-03T04:31:06.643Z,25.85
2023-04-03T04:32:06.624Z,25.85
2023-04-03T04:33:06.671Z,25.85
2023-04-03T04:34:06.695Z,25.85
2023-04-03T04:35:06.690Z,25.85
2023-04-03T04:36:06.749Z,25.86
2023-04-03T04:37:06.743Z,25.86
2023-04-03T04:38:06.710Z,25.88
2023-04-03T04:39:06.746Z,25.85
2023-04-03T04:40:06.759Z,25.89
2023-04-03T04:41:06.772Z,25.86
2023-04-03T04:42:06.800Z,25.88
2023-04-03T04:43:06.802Z,25.88
2023-04-03T04:44:06.862Z,25.88
2023-04-03T04:45:06.870Z,25.88
2023-04-03T04:46:06.897Z,25.86
2023-04-03T04:47:06.946Z,25.89
2023-04-03T04:48:06.977Z,25.85
2023-04-03T04:49:07.002Z,25.86
2023-04-03T04:50:07.009Z,25.86
2023-04-03T04:51:07.028Z,25.89
2023-04-03T04:52:07.018Z,25.88
2023-04-03T04:53:07.064Z,25.85
2023-04-03T04:54:07.098Z,25.89
2023-04-03T04:55:07.149Z,25.88
2023-04-03T04:56:07.160Z,25.89
2023-04-03T04:57:07.160Z,25.88
2023-04-03T04:58:07.183Z,25.89
2023-04-03T04:59:07.201Z,25.88
2023-04-03T05:00:07.232Z,25.91
2023-04-03T05:01:07.304Z,25.88
2023-04-03T05:02:07.367Z,25.88
2023-04-03T05:03:07.374Z,25.91
2023-04-03T05:04:07.365Z,25.88
2023-04-03T05:05:07.415Z,25.89
2023-04-03T05:06:07.377Z,25.88
2023-04-03T05:07:07.391Z,25.88
2023-04-03T05:08:07.435Z,25.88
2023-04-03T05:09:07.445Z,25.88
2023-04-03T05:10:07.516Z,25.88
2023-04-03T05:11:07.509Z,25.88
2023-04-03T05:12:07.520Z,25.89
2023-04-03T05:13:07.590Z,25.88
2023-04-03T05:14:07.703Z,25.89
2023-04-03T05:15:07.584Z,25.86
2023-04-03T05:16:07.631Z,25.88
2023-04-03T05:17:07.635Z,25.88
2023-04-03T05:18:07.703Z,25.88
2023-04-03T05:19:07.688Z,25.86
2023-04-03T05:20:07.728Z,25.89
2023-04-03T05:21:07.755Z,25.89
2023-04-03T05:22:07.805Z,25.89
2023-04-03T05:23:07.796Z,25.89
2023-04-03T05:24:07.828Z,25.86
2023-04-03T05:25:07.856Z,25.91
2023-04-03T05:26:07.826Z,25.88
2023-04-03T05:27:07.900Z,25.88
2023-04-03T05:28:07.965Z,25.86
2023-04-03T05:29:07.936Z,25.89
2023-04-03T05:30:08.006Z,25.88
2023-04-03T05:31:08.024Z,25.88
2023-04-03T05:32:08.009Z,25.85
2023-04-03T05:33:08.057Z,25.88
2023-04-03T05:34:08.051Z,25.88
2023-04-03T05:35:08.137Z,25.88
2023-04-03T05:36:08.165Z,25.86
2023-04-03T05:37:08.142Z,25.88
2023-04-03T05:38:08.202Z,25.88
2023-04-03T05:39:08.197Z,25.86
2023-04-03T05:40:08.231Z,25.86
2023-04-03T05:41:08.284Z,25.85
2023-04-03T05:42:08.293Z,25.88
2023-04-03T05:43:08.289Z,25.88
2023-04-03T05:44:08.346Z,25.85
2023-04-03T05:45:08.363Z,25.86
2023-04-03T05:46:08.442Z,25.86
2023-04-03T05:47:08.420Z,25.88
2023-04-03T05:48:08.463Z,25.86
2023-04-03T05:49:08.489Z,25.88
2023-04-03T05:50:08.493Z,25.88
2023-04-03T05:51:08.504Z,25.88
2023-04-03T05:52:08.525Z,25.89
2023-04-03T05:53:08.555Z,25.86
2023-04-03T05:54:08.602Z,25.86
2023-04-03T05:55:08.635Z,25.86
2023-04-03T05:56:08.675Z,25.86
2023-04-03T05:57:08.712Z,25.88
2023-04-03T05:58:11.128Z,25.86
2023-04-03T05:59:08.716Z,25.88
2023-04-03T06:00:08.715Z,25.89
2023-04-03T06:01:08.679Z,25.88
2023-04-03T06:02:08.729Z,25.86
2023-04-03T06:03:08.827Z,25.86
2023-04-03T06:04:08.779Z,25.86
2023-04-03T06:05:08.735Z,25.89
2023-04-03T06:06:08.681Z,25.89
2023-04-03T06:07:08.718Z,25.89
2023-04-03T06:08:08.667Z,25.88
2023-04-03T06:09:08.641Z,25.89
2023-04-03T06:10:08.643Z,25.89
2023-04-03T06:11:08.605Z,25.91
2023-04-03T06:12:08.647Z,25.91
2023-04-03T06:13:08.618Z,25.91
2023-04-03T06:14:08.592Z,25.89
2023-04-03T06:15:08.676Z,25.91
2023-04-03T06:16:08.619Z,25.89
2023-04-03T06:17:08.689Z,25.91
2023-04-03T06:18:08.607Z,25.91
2023-04-03T06:19:08.586Z,25.89
2023-04-03T06:20:08.607Z,25.92
2023-04-03T06:21:08.547Z,25.91
2023-04-03T06:22:08.617Z,25.93
2023-04-03T06:23:08.752Z,25.95
2023-04-03T06:24:08.576Z,25.93
2023-04-03T06:25:08.599Z,25.93
2023-04-03T06:26:08.534Z,25.96
2023-04-03T06:27:08.564Z,25.95
2023-04-03T06:28:08.492Z,25.96
2023-04-03T06:29:08.505Z,25.96
2023-04-03T06:30:08.504Z,25.96
2023-04-03T06:31:08.524Z,25.97
2023-04-03T06:32:08.577Z,25.95
2023-04-03T06:33:08.499Z,25.97
2023-04-03T06:34:09.704Z,25.97
2023-04-03T06:35:08.493Z,25.99
2023-04-03T06:36:08.477Z,25.97
2023-04-03T06:37:08.456Z,25.99
2023-04-03T06:38:08.463Z,25.97
2023-04-03T06:39:08.467Z,26.00
2023-04-03T06:40:08.439Z,25.97
2023-04-03T06:41:08.413Z,25.95
2023-04-03T06:42:08.456Z,25.97
2023-04-03T06:43:08.472Z,25.99
2023-04-03T06:44:08.417Z,25.99
2023-04-03T06:45:08.421Z,25.97
2023-04-03T06:46:08.451Z,25.97
2023-04-03T06:47:08.410Z,25.97
2023-04-03T06:48:08.527Z,25.99
2023-04-03T06:49:08.379Z,25.99
2023-04-03T06:50:08.392Z,25.99
2023-04-03T06:51:08.371Z,26.02
2023-04-03T06:52:08.347Z,25.97
2023-04-03T06:53:08.370Z,25.99
2023-04-03T06:54:08.368Z,25.99
2023-04-03T06:55:08.370Z,26.00
2023-04-03T06:56:08.382Z,25.99
2023-04-03T06:57:08.349Z,25.99
2023-04-03T06:58:08.346Z,25.99
2023-04-03T06:59:08.306Z,26.00
2023-04-03T07:00:08.328Z,26.00
2023-04-03T07:01:08.311Z,26.02
2023-04-03T07:02:08.326Z,26.02
2023-04-03T07:03:08.432Z,26.02
2023-04-03T07:04:08.354Z,26.02
2023-04-03T07:05:08.327Z,26.00
2023-04-03T07:06:08.285Z,26.02
2023-04-03T07:07:08.246Z,25.99
2023-04-03T07:08:08.255Z,26.00
2023-04-03T07:09:08.210Z,26.02
2023-04-03T07:10:08.266Z,25.99
2023-04-03T07:11:08.243Z,26.02
2023-04-03T07:12:08.238Z,26.02
2023-04-03T07:13:08.251Z,26.02
2023-04-03T07:14:08.194Z,25.99
2023-04-03T07:15:08.259Z,26.00
2023-04-03T07:16:08.283Z,26.02
2023-04-03T07:17:08.412Z,26.00
2023-04-03T07:18:08.346Z,26.02
2023-04-03T07:19:08.313Z,26.03
2023-04-03T07:20:08.334Z,26.03
2023-04-03T07:21:08.359Z,26.04
2023-04-03T07:22:08.387Z,26.03
2023-04-03T07:23:08.423Z,26.03
2023-04-03T07:24:10.128Z,26.06
2023-04-03T07:25:08.427Z,26.03
2023-04-03T07:26:08.390Z,26.04
2023-04-03T07:27:08.425Z,26.03
2023-04-03T07:28:08.404Z,26.04
2023-04-03T07:29:08.401Z,26.06
2023-04-03T07:30:08.423Z,26.06
2023-04-03T07:31:08.407Z,26.09
2023-04-03T07:32:08.403Z,26.09
2023-04-03T07:33:08.435Z,26.07
2023-04-03T07:34:08.354Z,26.09
2023-04-03T07:35:08.370Z,26.07
2023-04-03T07:36:08.397Z,26.09
2023-04-03T07:37:08.347Z,26.07
2023-04-03T07:38:08.324Z,26.06
2023-04-03T07:39:08.311Z,26.10
2023-04-03T07:40:08.322Z,26.07
2023-04-03T07:41:08.336Z,26.09
2023-04-03T07:42:08.282Z,26.10
2023-04-03T07:43:08.288Z,26.10
2023-04-03T07:44:08.309Z,26.10
2023-04-03T07:45:08.329Z,26.09
2023-04-03T07:46:08.346Z,26.10
2023-04-03T07:47:08.308Z,26.09
2023-04-03T07:48:08.276Z,26.12
2023-04-03T07:49:08.296Z,26.10
2023-04-03T07:50:08.258Z,26.12
2023-04-03T07:51:08.241Z,26.13
2023-04-03T07:52:08.261Z,26.13
2023-04-03T07:53:08.225Z,26.12
2023-04-03T07:54:08.207Z,26.12
2023-04-03T07:55:08.234Z,26.15
2023-04-03T07:56:08.238Z,26.16
2023-04-03T07:57:08.194Z,26.15
2023-04-03T07:58:08.177Z,26.13
2023-04-03T07:59:08.200Z,26.15
2023-04-03T08:00:08.196Z,26.15
2023-04-03T08:01:08.213Z,26.17
2023-04-03T08:02:08.210Z,26.16
2023-04-03T08:03:09.722Z,26.17
2023-04-03T08:04:08.266Z,26.16
2023-04-03T08:05:08.323Z,26.17
2023-04-03T08:06:11.761Z,26.16
2023-04-03T08:07:09.172Z,26.16
2023-04-03T08:08:08.150Z,26.19
2023-04-03T08:09:08.179Z,26.20
2023-04-03T08:10:08.167Z,26.20
2023-04-03T08:11:08.132Z,26.22
2023-04-03T08:12:08.199Z,26.19
2023-04-03T08:13:08.144Z,26.22
2023-04-03T08:14:08.177Z,26.22
2023-04-03T08:15:08.115Z,26.23
2023-04-03T08:16:08.121Z,26.24
2023-04-03T08:17:08.113Z,26.22
2023-04-03T08:18:08.205Z,26.23
2023-04-03T08:19:12.392Z,26.24
2023-04-03T08:20:09.120Z,26.23
2023-04-03T08:21:08.106Z,26.24
2023-04-03T08:22:08.108Z,26.24
2023-04-03T08:23:08.098Z,26.26
2023-04-03T08:24:08.077Z,26.27
2023-04-03T08:25:08.082Z,26.27
2023-04-03T08:26:08.072Z,26.26
2023-04-03T08:27:08.035Z,26.27
2023-04-03T08:28:08.044Z,26.29
2023-04-03T08:29:08.049Z,26.30
2023-04-03T08:30:08.141Z,26.30
2023-04-03T08:31:08.067Z,26.30
2023-04-03T08:32:08.022Z,26.33
2023-04-03T08:33:08.072Z,26.34
2023-04-03T08:34:08.024Z,26.36
2023-04-03T08:35:08.033Z,26.37
2023-04-03T08:36:08.053Z,26.39
2023-04-03T08:37:07.998Z,26.39
2023-04-03T08:38:08.009Z,26.40
2023-04-03T08:39:07.950Z,26.40
2023-04-03T08:40:07.983Z,26.43
2023-04-03T08:41:07.962Z,26.44
2023-04-03T08:42:07.973Z,26.46
2023-04-03T08:43:08.046Z,26.48
2023-04-03T08:44:07.948Z,26.47
2023-04-03T08:45:07.953Z,26.50
2023-04-03T08:46:07.933Z,26.61
2023-04-03T08:47:07.901Z,26.67
2023-04-03T08:48:08.172Z,26.70
2023-04-03T08:49:08.057Z,26.75
2023-04-03T08:50:10.616Z,26.77
2023-04-03T08:52:08.104Z,26.81
2023-04-03T08:53:08.121Z,26.80
2023-04-03T08:54:08.045Z,26.84
2023-04-03T08:55:08.075Z,26.91
2023-04-03T08:56:08.081Z,26.97
2023-04-03T08:57:08.149Z,27.04
2023-04-03T08:58:08.054Z,27.14
2023-04-03T08:59:08.046Z,27.19
2023-04-03T09:00:08.060Z,27.25
2023-04-03T09:01:08.080Z,27.35
2023-04-03T09:02:08.149Z,27.39
2023-04-03T09:03:09.566Z,27.42
2023-04-03T09:04:08.130Z,27.50
2023-04-03T09:05:08.039Z,27.53
2023-04-03T09:06:08.049Z,27.59
2023-04-03T09:07:08.006Z,27.65
2023-04-03T09:08:07.977Z,27.69
2023-04-03T09:09:08.066Z,27.70
2023-04-03T09:10:07.963Z,27.76
2023-04-03T09:11:07.935Z,27.76
2023-04-03T09:12:07.976Z,27.74
2023-04-03T09:13:07.995Z,27.69
2023-04-03T09:14:07.983Z,27.65
2023-04-03T09:15:07.964Z,27.59
2023-04-03T09:16:08.054Z,27.53
2023-04-03T09:17:07.920Z,27.50
2023-04-03T09:18:07.955Z,27.49
2023-04-03T09:19:07.886Z,27.46
2023-04-03T09:20:07.987Z,27.42
2023-04-03T09:21:07.942Z,27.41
2023-04-03T09:22:07.868Z,27.38
2023-04-03T09:23:07.908Z,27.32
2023-04-03T09:24:07.881Z,27.31
2023-04-03T09:25:07.849Z,27.28
2023-04-03T09:26:07.866Z,27.26
2023-04-03T09:27:07.894Z,27.25
2023-04-03T09:28:07.886Z,27.22
2023-04-03T09:29:07.856Z,27.22
2023-04-03T09:30:07.859Z,27.19
2023-04-03T09:31:07.892Z,27.16
2023-04-03T09:32:07.870Z,27.16
2023-04-03T09:33:07.997Z,27.16
2023-04-03T09:34:07.819Z,27.12
2023-04-03T09:35:18.926Z,27.14
2023-04-03T09:36:08.909Z,27.11
2023-04-03T09:37:07.843Z,27.11
2023-04-03T09:38:07.808Z,27.11
2023-04-03T09:39:07.753Z,27.09
2023-04-03T09:40:07.770Z,27.08
2023-04-03T09:41:07.770Z,27.09
2023-04-03T09:42:07.733Z,27.08
2023-04-03T09:43:07.737Z,27.04
2023-04-03T09:44:07.757Z,27.06
2023-04-03T09:45:07.762Z,27.04
2023-04-03T09:46:07.762Z,27.02
2023-04-03T09:47:07.741Z,27.02
2023-04-03T09:48:08.543Z,27.02
2023-04-03T09:49:09.733Z,27.02
2023-04-03T09:50:07.735Z,27.02
2023-04-03T09:51:07.735Z,27.02
2023-04-03T09:52:07.769Z,27.01
2023-04-03T09:53:07.767Z,27.01
2023-04-03T09:54:07.711Z,27.02
2023-04-03T09:55:07.765Z,26.99
2023-04-03T09:56:07.758Z,27.04
2023-04-03T09:57:07.891Z,27.01
2023-04-03T09:58:07.857Z,27.01
2023-04-03T09:59:07.852Z,27.01
2023-04-03T10:00:07.904Z,26.99
2023-04-03T10:01:07.942Z,26.99
2023-04-03T10:02:07.916Z,26.98
2023-04-03T10:03:07.995Z,26.99
2023-04-03T10:04:08.230Z,26.99
2023-04-03T10:05:09.808Z,27.01
2023-04-03T10:06:07.998Z,27.01
2023-04-03T10:07:08.053Z,26.98
2023-04-03T10:08:08.874Z,27.02
2023-04-03T10:09:08.066Z,26.98
2023-04-03T10:10:08.130Z,26.99
2023-04-03T10:11:08.136Z,27.01
2023-04-03T10:12:08.138Z,26.98
2023-04-03T10:13:09.323Z,27.01
2023-04-03T10:14:09.475Z,26.98
2023-04-03T10:15:08.235Z,26.99
2023-04-03T10:16:08.337Z,27.01
2023-04-03T10:17:08.276Z,27.01
2023-04-03T10:18:21.576Z,27.02
2023-04-03T10:19:09.325Z,27.02
2023-04-03T10:20:08.281Z,27.04
2023-04-03T10:21:11.883Z,27.01
2023-04-03T10:22:09.318Z,27.01
2023-04-03T10:23:08.272Z,27.02
2023-04-03T10:24:08.352Z,27.04
2023-04-03T10:25:08.282Z,27.04
2023-04-03T10:26:08.300Z,27.02
2023-04-03T10:27:08.242Z,27.04
2023-04-03T10:28:08.230Z,27.05
2023-04-03T10:29:08.215Z,27.08
2023-04-03T10:30:08.264Z,27.06
2023-04-03T10:31:08.250Z,27.06
2023-04-03T10:32:08.176Z,27.08
2023-04-03T10:33:08.254Z,27.08
2023-04-03T10:34:08.222Z,27.08
2023-04-03T10:35:08.217Z,27.11
2023-04-03T10:36:08.233Z,27.09
2023-04-03T10:37:08.250Z,27.12
2023-04-03T10:38:08.146Z,27.11
2023-04-03T10:39:08.164Z,27.11
2023-04-03T10:40:08.238Z,27.12
2023-04-03T10:41:08.146Z,27.14
2023-04-03T10:43:08.110Z,27.12
2023-04-03T10:44:08.115Z,27.14
2023-04-03T10:45:08.160Z,27.15
2023-04-03T10:46:08.237Z,27.14
2023-04-03T10:47:08.115Z,27.14
2023-04-03T10:48:08.150Z,27.12
2023-04-03T10:49:08.117Z,27.14
2023-04-03T10:50:08.135Z,27.11
2023-04-03T10:51:08.082Z,27.12
2023-04-03T10:52:08.093Z,27.12
2023-04-03T10:53:08.093Z,27.14
2023-04-03T10:54:08.062Z,27.15
2023-04-03T10:55:08.074Z,27.14
2023-04-03T10:56:08.150Z,27.15
2023-04-03T10:57:12.544Z,27.15
2023-04-03T10:58:09.035Z,27.16
2023-04-03T10:59:08.060Z,27.15
2023-04-03T11:00:08.035Z,27.16
2023-04-03T11:01:08.191Z,27.15
2023-04-03T11:02:08.005Z,27.15
2023-04-03T11:03:08.132Z,27.15
2023-04-03T11:04:08.201Z,27.18
2023-04-03T11:05:08.037Z,27.15
2023-04-03T11:06:08.007Z,27.16
2023-04-03T11:07:07.999Z,27.16
2023-04-03T11:08:08.014Z,27.18
2023-04-03T11:09:07.985Z,27.16
2023-04-03T11:10:07.967Z,27.19
2023-04-03T11:11:07.977Z,27.19
2023-04-03T11:12:08.030Z,27.15
2023-04-03T11:13:07.990Z,27.18
2023-04-03T11:14:08.008Z,27.18
2023-04-03T11:15:07.931Z,27.16
2023-04-03T11:16:08.026Z,27.19
2023-04-03T11:17:07.950Z,27.18
2023-04-03T11:18:10.363Z,27.19
2023-04-03T11:19:08.049Z,27.18
2023-04-03T11:20:08.025Z,27.19
2023-04-03T11:21:08.095Z,27.19
2023-04-03T11:22:08.073Z,27.21
2023-04-03T11:23:08.136Z,27.16
2023-04-03T11:24:08.089Z,27.16
2023-04-03T11:25:08.127Z,27.21
2023-04-03T11:26:08.138Z,27.19
2023-04-03T11:27:08.118Z,27.19
2023-04-03T11:28:08.206Z,27.18
2023-04-03T11:29:08.155Z,27.21
2023-04-03T11:30:08.159Z,27.19
2023-04-03T11:31:08.161Z,27.16
2023-04-03T11:32:08.208Z,27.16
2023-04-03T11:33:08.234Z,27.19
2023-04-03T11:34:08.221Z,27.16
2023-04-03T11:35:08.278Z,27.16
2023-04-03T11:36:19.056Z,27.18
2023-04-03T11:37:09.202Z,27.21
2023-04-03T11:38:08.223Z,27.18
2023-04-03T11:39:08.180Z,27.18
2023-04-03T11:40:08.182Z,27.16
2023-04-03T11:41:08.133Z,27.19
2023-04-03T11:42:13.160Z,27.18
2023-04-03T11:43:09.217Z,27.19
2023-04-03T11:44:08.210Z,27.18
2023-04-03T11:45:08.123Z,27.18
2023-04-03T11:46:08.113Z,27.15
2023-04-03T11:47:08.196Z,27.19
2023-04-03T11:48:23.503Z,27.21
2023-04-03T11:49:09.108Z,27.21
2023-04-03T11:50:08.133Z,27.21
2023-04-03T11:51:08.133Z,27.22
2023-04-03T11:52:08.083Z,27.21
2023-04-03T11:53:08.097Z,27.21
2023-04-03T11:54:08.122Z,27.25
2023-04-03T11:55:08.099Z,27.24
2023-04-03T11:56:08.068Z,27.24
2023-04-03T11:57:08.101Z,27.24
2023-04-03T11:58:08.019Z,27.25
2023-04-03T11:59:08.029Z,27.25
2023-04-03T12:00:08.121Z,27.28
2023-04-03T12:01:08.119Z,27.26
2023-04-03T12:02:08.057Z,27.25
2023-04-03T12:03:08.143Z,27.26
2023-04-03T12:04:08.208Z,27.25
2023-04-03T12:05:08.055Z,27.26
2023-04-03T12:06:08.195Z,27.26
2023-04-03T12:07:08.038Z,27.25
2023-04-03T12:08:07.988Z,27.26
2023-04-03T12:09:07.985Z,27.26
2023-04-03T12:10:08.768Z,27.28
2023-04-03T12:11:08.000Z,27.24
2023-04-03T12:12:07.962Z,27.26
2023-04-03T12:13:07.976Z,27.26
2023-04-03T12:14:07.996Z,27.26
2023-04-03T12:15:07.917Z,27.26
2023-04-03T12:16:08.030Z,27.26
2023-04-03T12:17:08.059Z,27.24
2023-04-03T12:18:08.022Z,27.24
2023-04-03T12:19:07.879Z,27.26
2023-04-03T12:20:07.929Z,27.26
2023-04-03T12:21:07.925Z,27.26
2023-04-03T12:22:07.858Z,27.22
2023-04-03T12:23:08.006Z,27.24
2023-04-03T12:24:07.884Z,27.25
2023-04-03T12:25:07.881Z,27.25
2023-04-03T12:26:07.862Z,27.26
2023-04-03T12:27:07.888Z,27.22
2023-04-03T12:28:07.871Z,27.22
2023-04-03T12:29:07.888Z,27.22
2023-04-03T12:30:07.898Z,27.22
2023-04-03T12:31:07.931Z,27.24
2023-04-03T12:32:07.948Z,27.22
2023-04-03T12:33:13.100Z,27.21
2023-04-03T12:34:08.934Z,27.21
2023-04-03T12:35:07.940Z,27.22
2023-04-03T12:36:07.984Z,27.22
2023-04-03T12:37:07.877Z,27.18
2023-04-03T12:38:07.947Z,27.22
2023-04-03T12:39:07.892Z,27.22
2023-04-03T12:40:07.857Z,27.21
2023-04-03T12:41:07.880Z,27.18
2023-04-03T12:42:07.900Z,27.22
2023-04-03T12:43:07.833Z,27.19
2023-04-03T12:44:07.869Z,27.21
2023-04-03T12:45:07.896Z,27.19
2023-04-03T12:46:08.037Z,27.18
2023-04-03T12:47:07.937Z,27.18
2023-04-03T12:48:08.018Z,27.19
2023-04-03T12:49:07.823Z,27.18
2023-04-03T12:50:07.847Z,27.16
2023-04-03T12:51:07.857Z,27.16
2023-04-03T12:52:07.779Z,27.18
2023-04-03T12:53:07.777Z,27.19
2023-04-03T12:54:07.795Z,27.16